createdAt,value
2023-02-01T08:54:11.484Z,90.40
2023-02-01T08:56:39.650Z,90.30
2023-02-01T08:59:07.047Z,90.30
2023-02-01T09:01:34.352Z,90.30
2023-02-01T09:04:01.714Z,90.20
2023-02-01T09:06:29.047Z,90.00
2023-02-01T09:08:57.089Z,89.50
2023-02-01T09:11:24.396Z,89.40
2023-02-01T09:13:51.720Z,89.20
2023-02-01T09:16:20.060Z,88.90
2023-02-01T09:19:01.644Z,88.60
2023-02-01T09:21:34.887Z,88.40
2023-02-01T09:24:02.649Z,88.20
2023-02-01T09:26:32.638Z,87.80
2023-02-01T09:29:02.061Z,87.70
2023-02-01T09:31:29.612Z,87.30
2023-02-01T09:33:57.744Z,87.50
2023-02-01T09:36:25.054Z,86.30
2023-02-01T09:38:53.591Z,86.40
2023-02-01T09:42:39.029Z,85.70
2023-02-01T09:45:33.428Z,85.80
2023-02-01T09:48:23.466Z,83.90
2023-02-01T09:51:00.359Z,83.80
2023-02-01T09:53:36.788Z,82.90
2023-02-01T09:56:25.642Z,81.20
2023-02-01T09:59:33.461Z,80.30
2023-02-01T10:02:02.981Z,80.60
2023-02-01T10:04:30.632Z,81.00
2023-02-01T10:08:05.933Z,81.40
2023-02-01T10:10:48.637Z,80.40
2023-02-01T10:13:56.640Z,80.90
2023-02-01T10:17:14.073Z,80.90
2023-02-01T10:20:34.319Z,80.70
2023-02-01T10:24:16.791Z,80.80
2023-02-01T10:27:11.168Z,80.70
2023-02-01T10:29:46.802Z,81.00
2023-02-01T10:32:29.479Z,81.00
2023-02-01T10:35:19.869Z,81.00
2023-02-01T10:37:47.732Z,81.30
2023-02-01T10:40:26.704Z,81.00
2023-02-01T10:43:05.526Z,80.50
2023-02-01T10:45:34.633Z,79.20
2023-02-01T10:48:05.158Z,79.50
2023-02-01T10:50:56.318Z,78.80
2023-02-01T10:53:27.743Z,79.30
2023-02-01T10:55:56.396Z,78.60
2023-02-01T10:58:34.306Z,78.00
2023-02-01T11:01:11.374Z,77.90
2023-02-01T11:03:53.465Z,76.70
2023-02-01T11:06:46.778Z,76.80
2023-02-01T11:09:24.597Z,75.60
2023-02-01T11:11:51.663Z,77.10
2023-02-01T11:14:26.174Z,78.50
2023-02-01T11:17:01.004Z,78.90
2023-02-01T11:19:29.800Z,80.60
2023-02-01T11:22:02.017Z,80.90
2023-02-01T11:24:36.675Z,81.60
2023-02-01T11:27:22.060Z,81.40
2023-02-01T11:30:01.667Z,81.10
2023-02-01T11:32:29.587Z,80.40
2023-02-01T11:35:12.968Z,81.20
2023-02-01T11:37:44.028Z,80.60
2023-02-01T11:40:17.512Z,79.50
2023-02-01T11:43:29.872Z,79.50
2023-02-01T11:46:23.558Z,79.10
2023-02-01T11:48:50.902Z,78.40
2023-02-01T11:51:55.757Z,77.40
2023-02-01T11:55:19.822Z,77.90
2023-02-01T11:58:23.337Z,77.40
2023-02-01T12:02:05.866Z,77.30
2023-02-01T12:05:32.399Z,77.10
2023-02-01T12:08:42.485Z,75.90
2023-02-01T12:12:23.695Z,76.90
2023-02-01T12:15:42.473Z,77.00
2023-02-01T12:18:41.160Z,76.70
2023-02-01T12:21:44.412Z,76.10
2023-02-01T12:25:06.367Z,76.30
2023-02-01T12:28:21.847Z,75.70
2023-02-01T12:31:43.337Z,75.30
2023-02-01T12:34:39.890Z,74.90
2023-02-01T12:37:45.381Z,74.50
2023-02-01T12:40:49.650Z,73.90
2023-02-01T12:43:50.768Z,73.70
2023-02-01T12:46:38.357Z,73.80
2023-02-01T12:50:23.133Z,73.00
2023-02-01T12:53:21.066Z,73.70
2023-02-01T12:56:04.827Z,72.80
2023-02-01T12:58:56.856Z,73.60
2023-02-01T13:01:53.337Z,74.00
2023-02-01T13:05:20.114Z,74.30
2023-02-01T13:08:17.216Z,74.10
2023-02-01T13:10:58.695Z,74.70
2023-02-01T13:14:34.892Z,74.80
2023-02-01T13:17:24.455Z,74.90
2023-02-01T13:20:06.125Z,75.00
2023-02-01T13:22:55.383Z,74.10
2023-02-01T13:25:47.415Z,74.00
2023-02-01T13:28:35.898Z,74.70
2023-02-01T13:31:49.867Z,75.30
2023-02-01T13:35:09.945Z,75.70
2023-02-01T13:38:15.380Z,75.20
2023-02-01T13:41:16.445Z,75.60
2023-02-01T13:43:51.610Z,75.00
2023-02-01T13:46:19.090Z,75.10
2023-02-01T13:49:03.020Z,74.60
2023-02-01T13:51:47.489Z,74.40
2023-02-01T13:54:40.098Z,74.20
2023-02-01T13:57:42.286Z,74.20
2023-02-01T14:00:39.023Z,74.30
2023-02-01T14:03:06.057Z,74.20
2023-02-01T14:05:34.960Z,74.30
2023-02-01T14:08:06.151Z,73.90
2023-02-01T14:10:59.282Z,74.10
2023-02-01T14:13:43.022Z,73.70
2023-02-01T14:16:18.160Z,74.10
2023-02-01T14:18:47.309Z,73.70
2023-02-01T14:21:28.898Z,73.50
2023-02-01T14:24:13.686Z,72.40
2023-02-01T14:26:59.668Z,73.00
2023-02-01T14:29:39.275Z,73.50
2023-02-01T14:32:27.277Z,72.10
2023-02-01T14:35:01.104Z,72.20
2023-02-01T14:37:36.932Z,71.80
2023-02-01T14:40:13.266Z,71.00
2023-02-01T14:42:43.233Z,71.40
2023-02-01T14:45:26.247Z,71.40
2023-02-01T14:48:06.978Z,71.20
2023-02-01T14:50:41.744Z,70.00
2023-02-01T14:53:15.664Z,69.40
2023-02-01T14:56:10.613Z,69.90
2023-02-01T14:59:13.806Z,69.70
2023-02-01T15:01:56.088Z,69.60
2023-02-01T15:04:28.733Z,70.00
2023-02-01T15:07:08.045Z,70.30
2023-02-01T15:09:47.985Z,70.90
2023-02-01T15:12:31.654Z,70.80
2023-02-01T15:15:25.121Z,70.80
2023-02-01T15:18:01.091Z,69.90
2023-02-01T15:20:34.302Z,70.10
2023-02-01T15:23:17.618Z,69.80
2023-02-01T15:25:48.438Z,69.20
2023-02-01T15:28:18.173Z,69.30
2023-02-01T15:31:01.601Z,69.10
2023-02-01T15:33:32.056Z,69.20
2023-02-01T15:36:23.445Z,68.50
2023-02-01T15:39:26.573Z,68.60
2023-02-01T15:42:19.768Z,68.60
2023-02-01T15:44:47.783Z,69.60
2023-02-01T15:47:30.429Z,68.90
2023-02-01T15:50:02.060Z,69.00
2023-02-01T15:52:42.518Z,68.70
2023-02-01T15:55:24.239Z,68.70
2023-02-01T15:57:52.707Z,68.20
2023-02-01T16:00:51.474Z,68.80
2023-02-01T16:03:43.664Z,68.70
2023-02-01T16:06:30.682Z,68.20
2023-02-01T16:09:14.500Z,68.70
2023-02-01T16:12:02.850Z,68.90
2023-02-01T16:14:30.642Z,68.40
2023-02-01T16:17:00.114Z,67.60
2023-02-01T16:19:29.379Z,67.70
2023-02-01T16:21:57.525Z,67.20
2023-02-01T16:24:26.900Z,66.90
2023-02-01T16:26:54.510Z,67.00
2023-02-01T16:29:22.665Z,67.00
2023-02-01T16:31:51.236Z,66.90
2023-02-01T16:34:19.546Z,66.60
2023-02-01T16:36:57.923Z,66.60
2023-02-01T16:39:25.542Z,66.30
2023-02-01T16:41:52.897Z,66.60
2023-02-01T16:44:20.492Z,66.00
2023-02-01T16:46:49.755Z,66.30
2023-02-01T16:49:25.844Z,66.90
2023-02-01T16:51:59.421Z,66.90
2023-02-01T16:54:27.712Z,66.80
2023-02-01T16:56:55.323Z,67.30
2023-02-01T16:59:22.646Z,67.30
2023-02-01T17:01:49.907Z,67.20
2023-02-01T17:04:18.500Z,67.50
2023-02-01T17:06:48.280Z,67.60
2023-02-01T17:09:15.712Z,68.40
2023-02-01T17:11:43.192Z,68.50
2023-02-01T17:14:22.521Z,68.80
2023-02-01T17:16:51.513Z,68.60
2023-02-01T17:19:24.585Z,68.90
2023-02-01T17:21:56.979Z,69.40
2023-02-01T17:24:46.639Z,69.80
2023-02-01T17:27:17.392Z,70.10
2023-02-01T17:29:47.080Z,70.40
2023-02-01T17:32:25.464Z,70.30
2023-02-01T17:34:52.991Z,70.40
2023-02-01T17:37:34.674Z,70.70
2023-02-01T17:40:02.358Z,70.70
2023-02-01T17:42:30.990Z,70.90
2023-02-01T17:45:37.071Z,70.50
2023-02-01T17:48:08.610Z,70.60
2023-02-01T17:50:38.833Z,70.70
2023-02-01T17:53:09.842Z,70.50
2023-02-01T17:55:44.886Z,70.50
2023-02-01T17:58:15.939Z,70.50
2023-02-01T18:00:45.566Z,70.60
2023-02-01T18:03:33.764Z,70.50
2023-02-01T18:06:01.888Z,70.50
2023-02-01T18:08:33.671Z,70.50
2023-02-01T18:11:02.342Z,70.50
2023-02-01T18:13:32.963Z,70.80
2023-02-01T18:16:01.993Z,70.50
2023-02-01T18:18:31.206Z,70.50
2023-02-01T18:20:59.427Z,70.60
2023-02-01T18:23:26.769Z,70.60
2023-02-01T18:25:54.180Z,70.80
2023-02-01T18:28:21.476Z,71.10
2023-02-01T18:30:51.669Z,71.10
2023-02-01T18:33:21.517Z,70.90
2023-02-01T18:35:49.699Z,71.00
2023-02-01T18:38:17.179Z,71.40
2023-02-01T18:40:58.231Z,71.60
2023-02-01T18:43:27.221Z,71.70
2023-02-01T18:45:55.571Z,71.90
